sensor_id;sensor_type;location;lat;lon;timestamp;pressure;altitude;pressure_sealevel;temperature;humidity
70976;BME280;58635;51.198;6.010;2023-01-29T00:01:15;102891.41;;;2.50;58.62
70976;BME280;58635;51.198;6.010;2023-01-29T00:03:41;102885.53;;;2.48;58.72
70976;BME280;58635;51.198;6.010;2023-01-29T00:06:07;102895.03;;;2.46;58.79
70976;BME280;58635;51.198;6.010;2023-01-29T00:08:36;102894.22;;;2.46;58.75
70976;BME280;58635;51.198;6.010;2023-01-29T00:11:04;102889.19;;;2.44;58.63
70976;BME280;58635;51.198;6.010;2023-01-29T00:13:30;102888.38;;;2.44;58.84
70976;BME280;58635;51.198;6.010;2023-01-29T00:15:57;102886.72;;;2.43;58.62
70976;BME280;58635;51.198;6.010;2023-01-29T00:18:23;102884.28;;;2.41;58.62
70976;BME280;58635;51.198;6.010;2023-01-29T00:20:48;102881.81;;;2.40;58.72
70976;BME280;58635;51.198;6.010;2023-01-29T00:23:14;102878.44;;;2.39;58.58
70976;BME280;58635;51.198;6.010;2023-01-29T00:25:40;102869.19;;;2.37;58.64
70976;BME280;58635;51.198;6.010;2023-01-29T00:28:06;102869.28;;;2.35;58.67
70976;BME280;58635;51.198;6.010;2023-01-29T00:30:31;102868.38;;;2.36;58.72
70976;BME280;58635;51.198;6.010;2023-01-29T00:32:57;102867.66;;;2.34;58.64
70976;BME280;58635;51.198;6.010;2023-01-29T00:35:22;102861.72;;;2.33;58.49
70976;BME280;58635;51.198;6.010;2023-01-29T00:37:47;102860.06;;;2.32;58.75
70976;BME280;58635;51.198;6.010;2023-01-29T00:40:13;102871.13;;;2.33;58.98
70976;BME280;58635;51.198;6.010;2023-01-29T00:42:38;102872.13;;;2.30;58.93
70976;BME280;58635;51.198;6.010;2023-01-29T00:45:22;102866.19;;;2.30;58.92
70976;BME280;58635;51.198;6.010;2023-01-29T00:47:48;102869.75;;;2.27;59.06
70976;BME280;58635;51.198;6.010;2023-01-29T00:50:13;102867.28;;;2.26;58.99
70976;BME280;58635;51.198;6.010;2023-01-29T00:52:38;102872.47;;;2.24;58.96
70976;BME280;58635;51.198;6.010;2023-01-29T00:55:08;102860.69;;;2.22;59.09
70976;BME280;58635;51.198;6.010;2023-01-29T00:57:35;102872.53;;;2.23;58.88
70976;BME280;58635;51.198;6.010;2023-01-29T01:00:03;102872.63;;;2.21;58.81
70976;BME280;58635;51.198;6.010;2023-01-29T01:02:29;102863.44;;;2.19;58.73
70976;BME280;58635;51.198;6.010;2023-01-29T01:05:15;102873.09;;;2.14;59.05
70976;BME280;58635;51.198;6.010;2023-01-29T01:07:48;102867.16;;;2.13;59.13
70976;BME280;58635;51.198;6.010;2023-01-29T01:10:27;102852.72;;;2.12;59.04
70976;BME280;58635;51.198;6.010;2023-01-29T01:15:26;102857.94;;;2.11;59.13
70976;BME280;58635;51.198;6.010;2023-01-29T01:17:54;102850.38;;;2.09;59.11
70976;BME280;58635;51.198;6.010;2023-01-29T01:20:21;102859.56;;;2.12;59.38
70976;BME280;58635;51.198;6.010;2023-01-29T01:22:47;102848.53;;;2.11;59.03
70976;BME280;58635;51.198;6.010;2023-01-29T01:25:13;102839.16;;;2.12;59.24
70976;BME280;58635;51.198;6.010;2023-01-29T01:27:38;102836.59;;;2.12;59.32
70976;BME280;58635;51.198;6.010;2023-01-29T01:30:11;102836.59;;;2.12;59.25
70976;BME280;58635;51.198;6.010;2023-01-29T01:32:37;102834.97;;;2.11;59.19
70976;BME280;58635;51.198;6.010;2023-01-29T01:35:03;102832.50;;;2.09;59.28
70976;BME280;58635;51.198;6.010;2023-01-29T01:37:28;102841.06;;;2.08;59.20
70976;BME280;58635;51.198;6.010;2023-01-29T01:39:54;102835.22;;;2.06;59.19
70976;BME280;58635;51.198;6.010;2023-01-29T01:42:26;102827.66;;;2.04;59.18
70976;BME280;58635;51.198;6.010;2023-01-29T01:44:57;102837.88;;;2.04;59.26
70976;BME280;58635;51.198;6.010;2023-01-29T01:47:29;102838.78;;;2.03;59.24
70976;BME280;58635;51.198;6.010;2023-01-29T01:50:04;102837.38;;;1.98;59.31
70976;BME280;58635;51.198;6.010;2023-01-29T01:52:34;102834.66;;;2.01;59.03
70976;BME280;58635;51.198;6.010;2023-01-29T01:55:02;102829.63;;;1.99;59.18
70976;BME280;58635;51.198;6.010;2023-01-29T01:57:28;102834.75;;;1.99;59.21
70976;BME280;58635;51.198;6.010;2023-01-29T02:00:00;102832.28;;;1.98;59.12
70976;BME280;58635;51.198;6.010;2023-01-29T02:02:28;102844.31;;;1.96;59.17
70976;BME280;58635;51.198;6.010;2023-01-29T02:05:12;102838.56;;;1.92;59.25
70976;BME280;58635;51.198;6.010;2023-01-29T02:07:57;102842.03;;;1.91;59.09
70976;BME280;58635;51.198;6.010;2023-01-29T02:10:44;102839.63;;;1.88;59.22
70976;BME280;58635;51.198;6.010;2023-01-29T02:13:11;102835.53;;;1.86;59.14
70976;BME280;58635;51.198;6.010;2023-01-29T02:15:37;102845.66;;;1.87;59.28
70976;BME280;58635;51.198;6.010;2023-01-29T02:18:07;102853.38;;;1.86;58.95
70976;BME280;58635;51.198;6.010;2023-01-29T02:20:33;102858.66;;;1.83;58.88
70976;BME280;58635;51.198;6.010;2023-01-29T02:23:07;102856.22;;;1.81;58.73
70976;BME280;58635;51.198;6.010;2023-01-29T02:33:34;102870.94;;;1.76;59.10
70976;BME280;58635;51.198;6.010;2023-01-29T02:39:03;102875.28;;;1.74;59.00
70976;BME280;58635;51.198;6.010;2023-01-29T02:44:36;102882.94;;;1.74;59.02
70976;BME280;58635;51.198;6.010;2023-01-29T02:47:09;102882.13;;;1.73;59.03
70976;BME280;58635;51.198;6.010;2023-01-29T02:49:47;102870.19;;;1.74;59.17
70976;BME280;58635;51.198;6.010;2023-01-29T02:52:26;102865.81;;;1.76;59.20
70976;BME280;58635;51.198;6.010;2023-01-29T02:57:33;102860.81;;;1.74;59.20
70976;BME280;58635;51.198;6.010;2023-01-29T03:00:09;102859.09;;;1.75;59.31
70976;BME280;58635;51.198;6.010;2023-01-29T03:02:45;102861.53;;;1.76;59.13
70976;BME280;58635;51.198;6.010;2023-01-29T03:05:16;102854.72;;;1.77;59.36
70976;BME280;58635;51.198;6.010;2023-01-29T03:07:49;102862.44;;;1.75;59.38
70976;BME280;58635;51.198;6.010;2023-01-29T03:10:27;102864.84;;;1.79;59.38
70976;BME280;58635;51.198;6.010;2023-01-29T03:12:58;102859.66;;;1.80;59.47
70976;BME280;58635;51.198;6.010;2023-01-29T03:15:30;102857.84;;;1.82;59.44
70976;BME280;58635;51.198;6.010;2023-01-29T03:18:10;102853.38;;;1.86;59.65
70976;BME280;58635;51.198;6.010;2023-01-29T03:20:42;102854.94;;;1.88;59.51
70976;BME280;58635;51.198;6.010;2023-01-29T03:23:24;102862.53;;;1.90;59.43
70976;BME280;58635;51.198;6.010;2023-01-29T03:26:12;102864.00;;;1.94;59.57
70976;BME280;58635;51.198;6.010;2023-01-29T03:28:59;102868.19;;;1.95;59.36
70976;BME280;58635;51.198;6.010;2023-01-29T03:31:43;102856.16;;;1.97;59.61
70976;BME280;58635;51.198;6.010;2023-01-29T03:34:40;102861.19;;;1.98;59.72
70976;BME280;58635;51.198;6.010;2023-01-29T03:37:16;102862.00;;;1.99;59.66
70976;BME280;58635;51.198;6.010;2023-01-29T03:39:44;102861.09;;;2.00;59.65
70976;BME280;58635;51.198;6.010;2023-01-29T03:45:45;102850.63;;;2.04;59.82
70976;BME280;58635;51.198;6.010;2023-01-29T03:48:24;102848.81;;;2.07;59.68
70976;BME280;58635;51.198;6.010;2023-01-29T03:56:08;102849.72;;;2.05;59.83
70976;BME280;58635;51.198;6.010;2023-01-29T03:58:44;102847.16;;;2.05;59.70
70976;BME280;58635;51.198;6.010;2023-01-29T04:01:27;102849.72;;;2.05;60.01
70976;BME280;58635;51.198;6.010;2023-01-29T04:04:03;102848.53;;;2.11;59.86
70976;BME280;58635;51.198;6.010;2023-01-29T04:06:32;102840.88;;;2.11;60.06
70976;BME280;58635;51.198;6.010;2023-01-29T04:09:19;102841.47;;;2.16;59.87
70976;BME280;58635;51.198;6.010;2023-01-29T04:11:52;102831.25;;;2.16;60.06
70976;BME280;58635;51.198;6.010;2023-01-29T04:14:20;102834.53;;;2.18;59.80
70976;BME280;58635;51.198;6.010;2023-01-29T04:16:51;102828.31;;;2.22;59.72
70976;BME280;58635;51.198;6.010;2023-01-29T04:19:17;102822.31;;;2.23;59.69
70976;BME280;58635;51.198;6.010;2023-01-29T04:21:44;102817.19;;;2.23;59.81
70976;BME280;58635;51.198;6.010;2023-01-29T04:24:12;102812.84;;;2.25;59.77
70976;BME280;58635;51.198;6.010;2023-01-29T04:32:14;102797.59;;;2.24;59.83
70976;BME280;58635;51.198;6.010;2023-01-29T04:37:41;102800.34;;;2.21;59.95
70976;BME280;58635;51.198;6.010;2023-01-29T04:43:16;102795.59;;;2.15;59.95
70976;BME280;58635;51.198;6.010;2023-01-29T04:48:44;102802.88;;;2.07;60.27
70976;BME280;58635;51.198;6.010;2023-01-29T04:51:44;102791.03;;;2.05;60.12
70976;BME280;58635;51.198;6.010;2023-01-29T04:54:48;102793.47;;;2.07;60.03
70976;BME280;58635;51.198;6.010;2023-01-29T04:57:24;102785.81;;;2.07;59.89
70976;BME280;58635;51.198;6.010;2023-01-29T05:00:03;102784.09;;;2.08;60.21
70976;BME280;58635;51.198;6.010;2023-01-29T05:02:33;102789.94;;;2.10;59.99
70976;BME280;58635;51.198;6.010;2023-01-29T05:05:00;102788.19;;;2.10;60.16
70976;BME280;58635;51.198;6.010;2023-01-29T05:07:29;102791.56;;;2.11;59.91
70976;BME280;58635;51.198;6.010;2023-01-29T05:09:55;102796.66;;;2.11;60.09
70976;BME280;58635;51.198;6.010;2023-01-29T05:12:24;102796.56;;;2.12;60.18
70976;BME280;58635;51.198;6.010;2023-01-29T05:14:50;102782.06;;;2.13;60.02
70976;BME280;58635;51.198;6.010;2023-01-29T05:17:19;102783.75;;;2.14;60.13
70976;BME280;58635;51.198;6.010;2023-01-29T05:19:45;102778.66;;;2.14;60.03
70976;BME280;58635;51.198;6.010;2023-01-29T05:22:13;102777.72;;;2.15;60.15
70976;BME280;58635;51.198;6.010;2023-01-29T05:24:39;102769.16;;;2.16;60.18
70976;BME280;58635;51.198;6.010;2023-01-29T05:27:05;102758.94;;;2.16;60.07
70976;BME280;58635;51.198;6.010;2023-01-29T05:29:50;102759.78;;;2.16;60.00
70976;BME280;58635;51.198;6.010;2023-01-29T05:32:15;102753.75;;;2.17;60.03
70976;BME280;58635;51.198;6.010;2023-01-29T05:34:41;102757.84;;;2.20;60.23
70976;BME280;58635;51.198;6.010;2023-01-29T05:37:07;102749.56;;;2.16;59.96
70976;BME280;58635;51.198;6.010;2023-01-29T05:39:33;102756.94;;;2.21;60.21
70976;BME280;58635;51.198;6.010;2023-01-29T05:41:59;102757.75;;;2.21;60.19
70976;BME280;58635;51.198;6.010;2023-01-29T05:44:24;102753.47;;;2.22;60.30
70976;BME280;58635;51.198;6.010;2023-01-29T05:46:49;102761.03;;;2.23;60.26
70976;BME280;58635;51.198;6.010;2023-01-29T05:49:16;102751.63;;;2.24;60.17
70976;BME280;58635;51.198;6.010;2023-01-29T05:51:42;102749.03;;;2.25;60.14
70976;BME280;58635;51.198;6.010;2023-01-29T05:54:13;102750.56;;;2.28;60.21
70976;BME280;58635;51.198;6.010;2023-01-29T05:56:38;102762.31;;;2.30;60.26
70976;BME280;58635;51.198;6.010;2023-01-29T05:59:04;102763.16;;;2.31;60.26
70976;BME280;58635;51.198;6.010;2023-01-29T06:01:30;102769.78;;;2.33;60.21
70976;BME280;58635;51.198;6.010;2023-01-29T06:03:55;102774.72;;;2.37;60.36
70976;BME280;58635;51.198;6.010;2023-01-29T06:06:21;102765.25;;;2.39;60.40
70976;BME280;58635;51.198;6.010;2023-01-29T06:08:46;102761.06;;;2.38;60.10
70976;BME280;58635;51.198;6.010;2023-01-29T06:11:12;102774.47;;;2.41;60.38
70976;BME280;58635;51.198;6.010;2023-01-29T06:13:38;102776.91;;;2.43;60.20
70976;BME280;58635;51.198;6.010;2023-01-29T06:16:05;102776.81;;;2.44;60.27
70976;BME280;58635;51.198;6.010;2023-01-29T06:18:31;102791.13;;;2.47;60.01
70976;BME280;58635;51.198;6.010;2023-01-29T06:21:01;102804.66;;;2.49;60.28
70976;BME280;58635;51.198;6.010;2023-01-29T06:23:26;102803.75;;;2.50;60.37
70976;BME280;58635;51.198;6.010;2023-01-29T06:25:52;102809.59;;;2.52;60.13
70976;BME280;58635;51.198;6.010;2023-01-29T06:28:17;102812.75;;;2.55;60.18
70976;BME280;58635;51.198;6.010;2023-01-29T06:30:43;102827.19;;;2.56;60.22
70976;BME280;58635;51.198;6.010;2023-01-29T06:33:08;102835.47;;;2.60;60.14
70976;BME280;58635;51.198;6.010;2023-01-29T06:35:33;102827.75;;;2.61;59.93
70976;BME280;58635;51.198;6.010;2023-01-29T06:37:59;102817.44;;;2.63;60.12
70976;BME280;58635;51.198;6.010;2023-01-29T06:40:24;102826.63;;;2.66;60.14
70976;BME280;58635;51.198;6.010;2023-01-29T06:42:49;102824.09;;;2.66;60.16
70976;BME280;58635;51.198;6.010;2023-01-29T06:45:15;102823.16;;;2.67;60.11
70976;BME280;58635;51.198;6.010;2023-01-29T06:47:40;102836.66;;;2.69;60.63
70976;BME280;58635;51.198;6.010;2023-01-29T06:50:06;102829.81;;;2.69;60.16
70976;BME280;58635;51.198;6.010;2023-01-29T06:52:32;102816.13;;;2.70;60.19
70976;BME280;58635;51.198;6.010;2023-01-29T06:54:57;102798.97;;;2.72;60.19
70976;BME280;58635;51.198;6.010;2023-01-29T06:57:22;102788.75;;;2.72;60.11
70976;BME280;58635;51.198;6.010;2023-01-29T06:59:48;102788.75;;;2.72;60.21
70976;BME280;58635;51.198;6.010;2023-01-29T07:02:13;102776.81;;;2.73;60.34
70976;BME280;58635;51.198;6.010;2023-01-29T07:04:39;102777.66;;;2.73;60.12
70976;BME280;58635;51.198;6.010;2023-01-29T07:07:06;102770.81;;;2.74;60.06
70976;BME280;58635;51.198;6.010;2023-01-29T07:09:40;102778.47;;;2.74;60.30
70976;BME280;58635;51.198;6.010;2023-01-29T07:12:06;102781.03;;;2.74;60.17
70976;BME280;58635;51.198;6.010;2023-01-29T07:14:32;102783.38;;;2.77;60.25
70976;BME280;58635;51.198;6.010;2023-01-29T07:16:57;102780.09;;;2.75;60.17
70976;BME280;58635;51.198;6.010;2023-01-29T07:19:23;102784.91;;;2.79;60.30
70976;BME280;58635;51.198;6.010;2023-01-29T07:21:48;102786.56;;;2.80;60.20
70976;BME280;58635;51.198;6.010;2023-01-29T07:24:13;102769.50;;;2.81;60.27
70976;BME280;58635;51.198;6.010;2023-01-29T07:26:40;102769.41;;;2.82;60.46
70976;BME280;58635;51.198;6.010;2023-01-29T07:29:06;102780.28;;;2.86;60.32
70976;BME280;58635;51.198;6.010;2023-01-29T07:31:31;102790.41;;;2.87;60.38
70976;BME280;58635;51.198;6.010;2023-01-29T07:33:56;102789.47;;;2.88;60.42
70976;BME280;58635;51.198;6.010;2023-01-29T07:36:22;102777.41;;;2.90;60.25
70976;BME280;58635;51.198;6.010;2023-01-29T07:38:49;102782.44;;;2.92;60.04
70976;BME280;58635;51.198;6.010;2023-01-29T07:41:15;102773.84;;;2.93;60.33
70976;BME280;58635;51.198;6.010;2023-01-29T07:43:40;102781.34;;;2.96;60.18
70976;BME280;58635;51.198;6.010;2023-01-29T07:46:06;102784.63;;;2.98;60.17
70976;BME280;58635;51.198;6.010;2023-01-29T07:48:31;102777.78;;;2.99;60.19
70976;BME280;58635;51.198;6.010;2023-01-29T07:50:57;102772.66;;;2.99;59.97
70976;BME280;58635;51.198;6.010;2023-01-29T07:53:23;102776.88;;;3.00;60.02
70976;BME280;58635;51.198;6.010;2023-01-29T07:55:49;102768.28;;;3.01;60.23
70976;BME280;58635;51.198;6.010;2023-01-29T07:58:14;102762.34;;;3.00;60.14
70976;BME280;58635;51.198;6.010;2023-01-29T08:00:40;102770.63;;;3.04;60.16
70976;BME280;58635;51.198;6.010;2023-01-29T08:03:08;102755.19;;;3.05;60.01
70976;BME280;58635;51.198;6.010;2023-01-29T08:05:35;102747.53;;;3.05;59.95
70976;BME280;58635;51.198;6.010;2023-01-29T08:08:00;102755.19;;;3.05;60.08
70976;BME280;58635;51.198;6.010;2023-01-29T08:10:26;102763.78;;;3.04;60.19
70976;BME280;58635;51.198;6.010;2023-01-29T08:12:59;102778.19;;;3.05;60.15
70976;BME280;58635;51.198;6.010;2023-01-29T08:15:25;102771.44;;;3.04;60.06
70976;BME280;58635;51.198;6.010;2023-01-29T08:17:51;102773.81;;;3.07;60.03
70976;BME280;58635;51.198;6.010;2023-01-29T08:20:17;102766.88;;;3.09;59.95
70976;BME280;58635;51.198;6.010;2023-01-29T08:22:43;102764.13;;;3.12;60.09
70976;BME280;58635;51.198;6.010;2023-01-29T08:25:09;102760.56;;;3.15;60.18
70976;BME280;58635;51.198;6.010;2023-01-29T08:27:35;102759.44;;;3.19;60.34
70976;BME280;58635;51.198;6.010;2023-01-29T08:30:01;102760.09;;;3.22;60.08
70976;BME280;58635;51.198;6.010;2023-01-29T08:32:26;102758.97;;;3.27;59.98
70976;BME280;58635;51.198;6.010;2023-01-29T08:34:51;102770.56;;;3.32;59.76
70976;BME280;58635;51.198;6.010;2023-01-29T08:37:17;102766.16;;;3.34;59.89
70976;BME280;58635;51.198;6.010;2023-01-29T08:39:42;102771.06;;;3.37;59.83
70976;BME280;58635;51.198;6.010;2023-01-29T08:42:07;102777.72;;;3.40;59.65
70976;BME280;58635;51.198;6.010;2023-01-29T08:44:33;102772.41;;;3.43;59.85
70976;BME280;58635;51.198;6.010;2023-01-29T08:46:58;102777.47;;;3.44;59.85
70976;BME280;58635;51.198;6.010;2023-01-29T08:49:24;102774.78;;;3.46;59.74
70976;BME280;58635;51.198;6.010;2023-01-29T08:51:49;102755.03;;;3.48;59.74
70976;BME280;58635;51.198;6.010;2023-01-29T08:54:18;102748.19;;;3.48;60.15
70976;BME280;58635;51.198;6.010;2023-01-29T08:56:43;102747.16;;;3.51;59.82
70976;BME280;58635;51.198;6.010;2023-01-29T08:59:09;102738.56;;;3.52;59.88
70976;BME280;58635;51.198;6.010;2023-01-29T09:01:35;102729.38;;;3.49;59.98
70976;BME280;58635;51.198;6.010;2023-01-29T09:04:00;102741.94;;;3.52;59.89
70976;BME280;58635;51.198;6.010;2023-01-29T09:06:26;102750.28;;;3.56;60.18
70976;BME280;58635;51.198;6.010;2023-01-29T09:08:51;102753.34;;;3.61;60.08
70976;BME280;58635;51.198;6.010;2023-01-29T09:11:17;102747.91;;;3.66;60.02
70976;BME280;58635;51.198;6.010;2023-01-29T09:13:42;102737.50;;;3.69;59.87
70976;BME280;58635;51.198;6.010;2023-01-29T09:16:08;102732.16;;;3.72;59.76
70976;BME280;58635;51.198;6.010;2023-01-29T09:18:34;102722.75;;;3.72;59.57
70976;BME280;58635;51.198;6.010;2023-01-29T09:20:59;102725.81;;;3.77;59.48
70976;BME280;58635;51.198;6.010;2023-01-29T09:23:27;102719.78;;;3.78;59.75
70976;BME280;58635;51.198;6.010;2023-01-29T09:25:52;102714.66;;;3.78;59.56
70976;BME280;58635;51.198;6.010;2023-01-29T09:28:18;102718.66;;;3.83;59.74
70976;BME280;58635;51.198;6.010;2023-01-29T09:30:43;102713.53;;;3.83;59.52
70976;BME280;58635;51.198;6.010;2023-01-29T09:33:09;102717.75;;;3.84;59.54
70976;BME280;58635;51.198;6.010;2023-01-29T09:35:34;102714.25;;;3.85;59.69
70976;BME280;58635;51.198;6.010;2023-01-29T09:38:00;102717.44;;;3.88;59.73
70976;BME280;58635;51.198;6.010;2023-01-29T09:40:32;102709.75;;;3.88;59.51
70976;BME280;58635;51.198;6.010;2023-01-29T09:46:04;102700.31;;;3.89;59.46
70976;BME280;58635;51.198;6.010;2023-01-29T09:48:33;102708.09;;;3.87;59.23
70976;BME280;58635;51.198;6.010;2023-01-29T09:51:03;102702.06;;;3.88;59.22
70976;BME280;58635;51.198;6.010;2023-01-29T09:53:38;102710.38;;;3.92;59.38
70976;BME280;58635;51.198;6.010;2023-01-29T09:56:18;102721.44;;;3.92;59.30
70976;BME280;58635;51.198;6.010;2023-01-29T09:58:43;102713.53;;;3.95;59.21
70976;BME280;58635;51.198;6.010;2023-01-29T10:21:31;102694.47;;;4.12;58.95
70976;BME280;58635;51.198;6.010;2023-01-29T10:26:32;102697.25;;;4.09;59.36
70976;BME280;58635;51.198;6.010;2023-01-29T10:29:01;102692.94;;;4.09;59.03
70976;BME280;58635;51.198;6.010;2023-01-29T10:31:31;102681.66;;;4.12;59.13
70976;BME280;58635;51.198;6.010;2023-01-29T10:34:09;102688.94;;;4.18;59.38
70976;BME280;58635;51.198;6.010;2023-01-29T10:36:45;102686.88;;;4.23;59.29
70976;BME280;58635;51.198;6.010;2023-01-29T10:39:15;102696.94;;;4.26;58.95
70976;BME280;58635;51.198;6.010;2023-01-29T10:47:44;102687.88;;;4.33;58.79
70976;BME280;58635;51.198;6.010;2023-01-29T10:50:36;102690.03;;;4.39;58.74
70976;BME280;58635;51.198;6.010;2023-01-29T11:01:09;102662.09;;;4.60;58.52
70976;BME280;58635;51.198;6.010;2023-01-29T11:03:35;102654.69;;;4.68;58.58
70976;BME280;58635;51.198;6.010;2023-01-29T11:06:17;102667.66;;;4.78;58.44
70976;BME280;58635;51.198;6.010;2023-01-29T11:11:21;102661.72;;;4.78;58.38
70976;BME280;58635;51.198;6.010;2023-01-29T11:13:57;102659.88;;;4.80;58.65
70976;BME280;58635;51.198;6.010;2023-01-29T11:16:26;102656.03;;;4.85;58.29
70976;BME280;58635;51.198;6.010;2023-01-29T11:18:54;102649.44;;;4.94;58.09
70976;BME280;58635;51.198;6.010;2023-01-29T11:21:21;102654.03;;;5.02;58.42
70976;BME280;58635;51.198;6.010;2023-01-29T11:23:48;102646.91;;;5.05;57.91
70976;BME280;58635;51.198;6.010;2023-01-29T11:26:17;102643.81;;;5.13;57.94
70976;BME280;58635;51.198;6.010;2023-01-29T11:28:47;102638.09;;;5.20;57.99
70976;BME280;58635;51.198;6.010;2023-01-29T11:31:22;102643.59;;;5.27;57.65
70976;BME280;58635;51.198;6.010;2023-01-29T11:33:52;102634.75;;;5.31;57.97
70976;BME280;58635;51.198;6.010;2023-01-29T11:36:29;102629.41;;;5.34;57.56
70976;BME280;58635;51.198;6.010;2023-01-29T11:39:19;102620.66;;;5.37;57.96
70976;BME280;58635;51.198;6.010;2023-01-29T11:44:41;102611.47;;;5.45;57.61
70976;BME280;58635;51.198;6.010;2023-01-29T11:47:21;102604.91;;;5.52;57.69
70976;BME280;58635;51.198;6.010;2023-01-29T11:49:49;102608.91;;;5.56;57.56
70976;BME280;58635;51.198;6.010;2023-01-29T11:52:18;102603.78;;;5.56;57.36
70976;BME280;58635;51.198;6.010;2023-01-29T11:54:57;102596.78;;;5.58;57.15
70976;BME280;58635;51.198;6.010;2023-01-29T11:57:40;102590.94;;;5.56;57.27
70976;BME280;58635;51.198;6.010;2023-01-29T12:02:47;102572.25;;;5.54;57.38
70976;BME280;58635;51.198;6.010;2023-01-29T12:05:19;102569.81;;;5.53;57.40
70976;BME280;58635;51.198;6.010;2023-01-29T12:07:49;102563.84;;;5.52;57.63
70976;BME280;58635;51.198;6.010;2023-01-29T12:10:39;102557.44;;;5.58;57.09
70976;BME280;58635;51.198;6.010;2023-01-29T12:15:46;102539.56;;;5.68;57.01
70976;BME280;58635;51.198;6.010;2023-01-29T12:21:02;102524.09;;;5.69;56.52
70976;BME280;58635;51.198;6.010;2023-01-29T12:29:32;102491.16;;;5.63;56.38
70976;BME280;58635;51.198;6.010;2023-01-29T12:32:13;102491.97;;;5.64;56.59
70976;BME280;58635;51.198;6.010;2023-01-29T12:40:13;102480.75;;;5.76;56.36
70976;BME280;58635;51.198;6.010;2023-01-29T12:42:41;102467.09;;;5.75;55.89
70976;BME280;58635;51.198;6.010;2023-01-29T12:45:08;102462.22;;;5.72;56.42
70976;BME280;58635;51.198;6.010;2023-01-29T12:47:37;102460.09;;;5.77;56.70
70976;BME280;58635;51.198;6.010;2023-01-29T12:50:08;102454.50;;;5.83;56.43
70976;BME280;58635;51.198;6.010;2023-01-29T12:52:41;102438.59;;;5.90;56.37
70976;BME280;58635;51.198;6.010;2023-01-29T12:55:21;102428.31;;;5.90;56.04
70976;BME280;58635;51.198;6.010;2023-01-29T12:57:57;102420.72;;;5.88;55.95
70976;BME280;58635;51.198;6.010;2023-01-29T13:00:34;102410.34;;;5.90;55.96
70976;BME280;58635;51.198;6.010;2023-01-29T13:05:41;102406.25;;;5.98;55.90
70976;BME280;58635;51.198;6.010;2023-01-29T13:08:31;102405.44;;;5.98;56.03
70976;BME280;58635;51.198;6.010;2023-01-29T13:11:03;102411.53;;;5.97;55.62
70976;BME280;58635;51.198;6.010;2023-01-29T13:13:37;102411.66;;;5.95;56.23
70976;BME280;58635;51.198;6.010;2023-01-29T13:16:11;102410.44;;;5.99;56.15
70976;BME280;58635;51.198;6.010;2023-01-29T13:18:49;102416.97;;;6.03;56.28
70976;BME280;58635;51.198;6.010;2023-01-29T13:21:20;102413.69;;;6.01;55.99
70976;BME280;58635;51.198;6.010;2023-01-29T13:23:55;102420.47;;;6.02;56.05
70976;BME280;58635;51.198;6.010;2023-01-29T13:26:23;102418.41;;;5.96;56.38
70976;BME280;58635;51.198;6.010;2023-01-29T13:28:51;102420.84;;;5.98;55.96
70976;BME280;58635;51.198;6.010;2023-01-29T13:31:27;102415.72;;;5.98;55.98
70976;BME280;58635;51.198;6.010;2023-01-29T13:34:11;102423.53;;;5.96;56.31
70976;BME280;58635;51.198;6.010;2023-01-29T13:36:42;102417.03;;;5.92;56.51
70976;BME280;58635;51.198;6.010;2023-01-29T13:41:41;102415.03;;;5.84;56.17
70976;BME280;58635;51.198;6.010;2023-01-29T13:44:30;102411.09;;;5.80;56.53
70976;BME280;58635;51.198;6.010;2023-01-29T13:46:59;102415.38;;;5.80;56.20
70976;BME280;58635;51.198;6.010;2023-01-29T13:49:46;102412.81;;;5.80;56.49
70976;BME280;58635;51.198;6.010;2023-01-29T13:52:37;102409.44;;;5.79;56.69
70976;BME280;58635;51.198;6.010;2023-01-29T13:57:52;102400.09;;;5.78;56.89
70976;BME280;58635;51.198;6.010;2023-01-29T14:03:38;102400.09;;;5.78;56.46
70976;BME280;58635;51.198;6.010;2023-01-29T14:13:47;102396.72;;;5.78;57.19
70976;BME280;58635;51.198;6.010;2023-01-29T14:18:57;102384.34;;;5.83;57.03
70976;BME280;58635;51.198;6.010;2023-01-29T14:21:31;102377.34;;;5.85;56.82
70976;BME280;58635;51.198;6.010;2023-01-29T14:24:07;102373.13;;;5.84;56.98
70976;BME280;58635;51.198;6.010;2023-01-29T14:29:03;102375.31;;;5.88;56.82
70976;BME280;58635;51.198;6.010;2023-01-29T14:31:42;102370.19;;;5.88;56.82
70976;BME280;58635;51.198;6.010;2023-01-29T14:34:34;102371.72;;;5.91;56.83
70976;BME280;58635;51.198;6.010;2023-01-29T14:37:03;102377.56;;;5.93;56.91
70976;BME280;58635;51.198;6.010;2023-01-29T14:39:52;102375.00;;;5.93;56.60
70976;BME280;58635;51.198;6.010;2023-01-29T14:42:38;102365.78;;;5.91;56.65
70976;BME280;58635;51.198;6.010;2023-01-29T14:53:26;102373.69;;;5.87;56.65
70976;BME280;58635;51.198;6.010;2023-01-29T14:55:57;102383.16;;;5.87;56.85
70976;BME280;58635;51.198;6.010;2023-01-29T14:58:37;102374.28;;;5.91;57.13
70976;BME280;58635;51.198;6.010;2023-01-29T15:01:06;102375.81;;;5.94;56.95
70976;BME280;58635;51.198;6.010;2023-01-29T15:03:46;102371.50;;;5.94;56.63
70976;BME280;58635;51.198;6.010;2023-01-29T15:06:31;102368.94;;;5.94;56.71
70976;BME280;58635;51.198;6.010;2023-01-29T15:11:56;102368.53;;;5.99;56.90
70976;BME280;58635;51.198;6.010;2023-01-29T15:14:30;102365.16;;;5.98;56.59
70976;BME280;58635;51.198;6.010;2023-01-29T15:19:36;102353.00;;;6.00;57.07
70976;BME280;58635;51.198;6.010;2023-01-29T15:22:10;102361.66;;;5.99;56.65
70976;BME280;58635;51.198;6.010;2023-01-29T15:24:37;102355.56;;;6.00;56.59
70976;BME280;58635;51.198;6.010;2023-01-29T15:27:06;102356.38;;;6.01;56.87
70976;BME280;58635;51.198;6.010;2023-01-29T15:29:34;102344.75;;;5.97;56.72
70976;BME280;58635;51.198;6.010;2023-01-29T15:32:00;102334.72;;;5.94;56.89
70976;BME280;58635;51.198;6.010;2023-01-29T15:34:25;102329.91;;;5.89;57.05
70976;BME280;58635;51.198;6.010;2023-01-29T15:36:51;102325.72;;;5.88;56.65
70976;BME280;58635;51.198;6.010;2023-01-29T15:39:19;102319.91;;;5.86;56.70
70976;BME280;58635;51.198;6.010;2023-01-29T15:41:46;102324.91;;;5.87;56.77